San Bernardino, CA (92412)

11:55 PM PDT on October 31, 2014 (GMT -0700)
Loma Linda | Change Station
CLOSE
Current Station
Personal Weather Station
Location: Loma Linda, CA
Elevation: 1240 ft
Nearby Weather Stations

Elev 1240 ft 34.04 °N, 117.22 °W | Updated 19 seconds ago

Overcast
Overcast
61.2 °F
Feels Like 61.2 °F
N
2.0
Wind Variable Wind from SE
Gusts 6.0 mph

Today
High -- | Low -- °F
--% Chance of Precip.
Yesterday
High -- | Low -- °F
Precip. -- in
7:07 AM 5:56 PM
Waxing Gibbous, 63% visible
Pressure 29.87 in
Visibility 8.0 miles
Clouds Scattered Clouds 2400 ft
Mostly Cloudy 3900 ft
Overcast 5500 ft
Dew Point 56 °F
Humidity 82%
Rainfall 0.00 in
Snow Depth Not available.
UV 0 out of 12
Pollen 3.10 out of 12
Air Quality Not available.
Flu Activity Not available.
SPECI KRAL 010613Z AUTO 10003KT 8SM -RA SCT024 BKN039 OVC055 17/14 A2987 RMK AO2 RAB0554 P0000 T01670139

More Conditions Fewer Conditions

Pressure 29.87 in
Visibility 8.0 miles
Clouds Scattered Clouds 2400 ft
Mostly Cloudy 3900 ft
Overcast 5500 ft
Dew Point 56 °F
Humidity 82%
Rainfall 0.00 in
Snow Depth Not available.
UV 0 out of 12
Pollen 3.10 out of 12
Air Quality Not available.
Flu Activity Not available.
SPECI KRAL 010613Z AUTO 10003KT 8SM -RA SCT024 BKN039 OVC055 17/14 A2987 RMK AO2 RAB0554 P0000 T01670139

More Conditions Fewer Conditions

10-Day Weather Forecast

Almanac

Astronomy

Oct. 31, 2014 Rise Set
Actual Time
Civil Twilight
Nautical Twilight
Astronomical Twilight
Moon
Length of Visible Light
Length of Day
Tomorrow will be .
, % of the Moon is Illuminated

Today's Extremes

State Highs State Lows

Community

WunderPhotos

Upload Photos

1,766,865 photos uploaded!

WunderBlogs® & News

Nearby

Air Quality

  Air Quality AQ Index Pollutant
Not available.

Snow Depth

Station Depth Elevation

Earthquake Activity

City Distance Mag. Time & Date
Minimum magnitude displayed is 2.5.

Coastal Water Temperatures

Place Temperature

Nearby Weather Stations